Time;durP1;ratioP1;P1;durP2;ratioP2;P2;SDS_P1;SDS_P2;PMS_P1;PMS_P2;Temp;Humidity;BMP_temperature;BMP_pressure;BME280_temperature;BME280_humidity;BME280_pressure;Samples;Min_cycle;Max_cycle;Signal;HPM_P1;HPM_P2
2023/08/28 00:00:31;;;;;;;1.13;0.80;;;15.50;99.90;;;;;;5019617;28;20022;-67
2023/08/28 00:02:56;;;;;;;6.25;1.13;;;15.50;99.90;;;;;;5019610;28;20036;-66
2023/08/28 00:05:22;;;;;;;1.42;0.93;;;15.30;99.90;;;;;;5018620;28;20030;-66
2023/08/28 00:07:47;;;;;;;3.95;1.20;;;15.10;99.90;;;;;;5018663;28;20068;-66
2023/08/28 00:10:13;;;;;;;4.60;1.10;;;15.10;99.90;;;;;;5017780;28;20091;-66
2023/08/28 00:12:40;;;;;;;2.20;0.80;;;15.20;99.90;;;;;;5018449;28;20110;-66
2023/08/28 00:15:07;;;;;;;3.45;1.10;;;15.20;99.90;;;;;;5019462;28;20022;-66
2023/08/28 00:17:33;;;;;;;1.60;1.23;;;15.20;99.90;;;;;;5018348;28;20029;-66
2023/08/28 00:19:58;;;;;;;3.60;1.23;;;15.20;99.90;;;;;;5018588;28;20018;-66
2023/08/28 00:22:24;;;;;;;1.83;1.00;;;15.30;99.90;;;;;;5018828;28;20033;-66
2023/08/28 00:24:49;;;;;;;1.10;0.95;;;15.30;99.90;;;;;;5018425;28;20041;-66
2023/08/28 00:27:15;;;;;;;1.95;0.90;;;15.30;99.90;;;;;;5018546;28;20029;-66
2023/08/28 00:29:41;;;;;;;1.90;0.88;;;15.10;99.90;;;;;;5018079;28;20033;-66
2023/08/28 00:32:06;;;;;;;1.10;0.75;;;14.90;99.90;;;;;;5018115;28;20026;-66
2023/08/28 00:34:32;;;;;;;3.08;0.82;;;14.90;99.90;;;;;;5018058;28;20084;-66
2023/08/28 00:36:57;;;;;;;1.73;0.80;;;14.80;99.90;;;;;;5018999;28;20029;-66
2023/08/28 00:39:23;;;;;;;0.65;0.60;;;14.70;99.90;;;;;;5018904;28;20072;-66
2023/08/28 00:41:49;;;;;;;3.30;0.98;;;14.70;99.90;;;;;;5018781;28;20022;-66
2023/08/28 00:44:14;;;;;;;3.05;0.93;;;14.70;99.90;;;;;;5019391;28;20036;-66
2023/08/28 00:46:40;;;;;;;5.07;1.08;;;14.60;99.90;;;;;;5018366;28;20121;-65
2023/08/28 00:49:06;;;;;;;7.90;1.27;;;14.50;99.90;;;;;;5017786;28;20030;-66
2023/08/28 00:51:32;;;;;;;1.35;1.10;;;14.40;99.90;;;;;;5017684;28;20048;-66
2023/08/28 00:53:58;;;;;;;1.23;0.77;;;14.30;99.90;;;;;;5017785;28;20018;-66
2023/08/28 00:56:24;;;;;;;1.38;0.90;;;14.20;99.90;;;;;;5017788;28;20029;-66
2023/08/28 00:58:49;;;;;;;3.13;1.00;;;14.30;99.90;;;;;;5017490;28;20026;-66
2023/08/28 01:01:15;;;;;;;1.55;1.00;;;14.30;99.90;;;;;;5018466;28;20029;-65
2023/08/28 01:03:40;;;;;;;2.15;1.02;;;14.40;99.90;;;;;;5017858;28;20048;-66
2023/08/28 01:06:15;;;;;;;1.10;0.95;;;14.50;99.90;;;;;;5018482;28;20036;-66
2023/08/28 01:08:52;;;;;;;2.47;0.80;;;14.60;99.90;;;;;;5018694;28;20026;-66
2023/08/28 01:11:36;;;;;;;2.83;1.20;;;14.60;99.90;;;;;;5017474;28;20116;-66
2023/08/28 01:14:14;;;;;;;5.28;0.90;;;14.60;99.90;;;;;;5017469;28;20130;-66
2023/08/28 01:16:43;;;;;;;1.15;0.95;;;14.50;99.90;;;;;;5017276;28;20040;-66
2023/08/28 01:19:24;;;;;;;1.58;0.98;;;14.40;99.90;;;;;;5017226;28;20045;-66
2023/08/28 01:21:58;;;;;;;4.53;1.05;;;14.50;99.90;;;;;;5017116;28;20029;-66
2023/08/28 01:24:25;;;;;;;4.80;1.90;;;14.60;99.90;;;;;;5018183;28;20021;-66
2023/08/28 01:26:51;;;;;;;7.88;1.30;;;14.60;99.90;;;;;;5018057;28;20033;-66
2023/08/28 01:29:16;;;;;;;4.68;1.33;;;14.70;99.90;;;;;;5018028;28;20018;-66
2023/08/28 01:31:42;;;;;;;3.15;1.20;;;14.80;99.90;;;;;;5018053;28;20030;-66
2023/08/28 01:34:07;;;;;;;1.92;1.20;;;14.80;99.90;;;;;;5017103;28;20048;-66
2023/08/28 01:36:48;;;;;;;4.45;1.20;;;14.80;99.90;;;;;;5017921;28;20026;-66
2023/08/28 01:39:38;;;;;;;2.75;1.13;;;14.70;99.90;;;;;;5016945;28;20065;-66
2023/08/28 01:42:06;;;;;;;2.55;0.80;;;14.60;99.90;;;;;;5016823;28;20022;-66
2023/08/28 01:44:33;;;;;;;2.33;1.10;;;14.40;99.90;;;;;;5017143;28;20026;-66
2023/08/28 01:46:59;;;;;;;2.63;1.25;;;14.30;99.90;;;;;;5016704;28;20026;-66
2023/08/28 01:49:29;;;;;;;3.28;1.15;;;14.00;99.90;;;;;;5017350;28;20030;-65
2023/08/28 01:51:55;;;;;;;2.70;1.00;;;13.80;99.90;;;;;;5016855;28;20065;-66
2023/08/28 01:54:21;;;;;;;0.90;0.77;;;13.70;99.90;;;;;;5016827;28;20060;-66
2023/08/28 01:56:47;;;;;;;2.10;1.00;;;13.70;99.90;;;;;;5017672;28;20030;-66
2023/08/28 01:59:13;;;;;;;1.52;0.75;;;13.60;99.90;;;;;;5016882;28;20033;-66
2023/08/28 02:01:38;;;;;;;5.88;1.05;;;13.80;99.90;;;;;;5016708;28;20029;-65
2023/08/28 02:04:04;;;;;;;2.30;1.08;;;13.70;99.90;;;;;;5016595;28;20033;-66
2023/08/28 02:06:30;;;;;;;3.38;0.93;;;13.60;99.90;;;;;;5016553;28;20028;-65
2023/08/28 02:08:55;;;;;;;3.63;1.65;;;13.60;99.90;;;;;;5017681;28;20021;-66
2023/08/28 02:11:21;;;;;;;2.25;1.00;;;13.70;99.90;;;;;;5016473;28;20064;-66
2023/08/28 02:13:46;;;;;;;1.90;1.10;;;13.80;99.90;;;;;;5017257;28;20117;-65
2023/08/28 02:16:12;;;;;;;2.78;0.95;;;13.90;99.90;;;;;;5016365;28;20022;-66
2023/08/28 02:18:37;;;;;;;3.45;0.98;;;13.90;99.90;;;;;;5017071;28;20033;-65
2023/08/28 02:21:03;;;;;;;4.45;1.02;;;14.10;99.90;;;;;;5017628;28;20031;-66
2023/08/28 02:23:29;;;;;;;1.92;0.73;;;14.20;99.90;;;;;;5016213;28;20033;-66
2023/08/28 02:25:55;;;;;;;5.10;1.13;;;14.30;99.90;;;;;;5017528;28;20019;-66
2023/08/28 02:28:20;;;;;;;4.25;1.30;;;14.30;99.90;;;;;;5016636;28;20105;-66
2023/08/28 02:30:47;;;;;;;2.35;1.27;;;14.20;99.90;;;;;;5016280;28;20048;-66
2023/08/28 02:33:13;;;;;;;4.50;1.17;;;14.00;99.90;;;;;;5018692;28;20049;-66
2023/08/28 02:35:39;;;;;;;3.50;1.20;;;14.10;99.90;;;;;;5020675;28;20033;-66
2023/08/28 02:38:08;;;;;;;3.10;1.13;;;14.10;99.90;;;;;;5020655;28;20037;-66
2023/08/28 02:40:35;;;;;;;3.33;1.00;;;14.10;99.90;;;;;;5020215;28;20109;-66
2023/08/28 02:43:05;;;;;;;4.45;1.70;;;14.00;99.90;;;;;;5020874;28;20061;-66
2023/08/28 02:45:32;;;;;;;3.78;1.10;;;13.90;99.90;;;;;;5021058;28;20026;-66
2023/08/28 02:47:58;;;;;;;2.22;1.25;;;14.00;99.90;;;;;;5020087;28;20033;-66
2023/08/28 02:50:23;;;;;;;1.98;1.17;;;14.00;99.90;;;;;;5021806;28;20034;-66
2023/08/28 02:52:49;;;;;;;1.65;1.00;;;14.00;99.90;;;;;;5020367;28;20072;-66
2023/08/28 02:55:14;;;;;;;2.05;0.95;;;13.90;99.90;;;;;;5020211;28;20022;-66
2023/08/28 02:57:40;;;;;;;1.05;0.90;;;13.80;99.90;;;;;;5019982;28;20076;-66
2023/08/28 03:00:06;;;;;;;2.20;0.90;;;13.60;99.90;;;;;;5020231;28;20082;-66
2023/08/28 03:02:31;;;;;;;2.13;0.80;;;13.50;99.90;;;;;;5020662;28;20018;-66
2023/08/28 03:04:57;;;;;;;2.80;1.15;;;13.50;99.90;;;;;;5019932;28;20084;-66
2023/08/28 03:07:22;;;;;;;2.17;0.82;;;13.60;99.90;;;;;;5020063;28;20026;-66
2023/08/28 03:09:48;;;;;;;1.27;1.10;;;13.60;99.90;;;;;;5019663;28;20056;-66
2023/08/28 03:12:13;;;;;;;3.25;1.27;;;13.70;99.90;;;;;;5020542;28;20109;-66
2023/08/28 03:14:39;;;;;;;4.35;1.35;;;13.80;99.90;;;;;;5020846;28;20026;-66
2023/08/28 03:17:05;;;;;;;3.10;1.20;;;13.70;99.90;;;;;;5019611;28;20026;-66
2023/08/28 03:19:30;;;;;;;3.20;1.88;;;13.70;99.90;;;;;;5019741;28;20041;-66
2023/08/28 03:21:56;;;;;;;2.28;1.05;;;13.70;99.90;;;;;;5019509;28;20025;-66
2023/08/28 03:24:21;;;;;;;1.17;0.88;;;13.70;99.90;;;;;;5019368;28;20029;-66
2023/08/28 03:26:47;;;;;;;1.63;0.88;;;13.60;99.90;;;;;;5020263;28;20064;-66
2023/08/28 03:29:13;;;;;;;2.20;0.88;;;13.50;99.90;;;;;;5020401;28;20021;-66
2023/08/28 03:31:39;;;;;;;2.13;1.00;;;13.40;99.90;;;;;;5020987;28;20058;-66
2023/08/28 03:34:04;;;;;;;1.67;0.90;;;13.30;99.90;;;;;;5019365;28;20030;-66
2023/08/28 03:36:30;;;;;;;2.58;1.10;;;13.20;99.90;;;;;;5019313;28;20202;-66
2023/08/28 03:38:56;;;;;;;2.35;1.00;;;13.00;99.90;;;;;;5020361;28;20026;-66
2023/08/28 03:41:21;;;;;;;1.20;0.90;;;13.00;99.90;;;;;;5019081;28;20116;-66
2023/08/28 03:43:47;;;;;;;1.10;1.00;;;13.20;99.90;;;;;;5018909;28;20320;-66
2023/08/28 03:46:12;;;;;;;3.92;1.67;;;13.30;99.90;;;;;;5018985;28;20025;-66
2023/08/28 03:48:38;;;;;;;1.98;0.93;;;13.40;99.90;;;;;;5020224;28;20018;-66
2023/08/28 03:51:03;;;;;;;2.13;0.95;;;13.40;99.90;;;;;;5018849;28;20057;-66
2023/08/28 03:53:29;;;;;;;2.50;1.20;;;13.60;99.90;;;;;;5019221;28;20030;-66
2023/08/28 03:55:55;;;;;;;1.65;1.25;;;13.70;99.90;;;;;;5019166;28;20026;-66
2023/08/28 03:58:22;;;;;;;1.92;1.00;;;13.60;99.90;;;;;;5019782;28;20034;-66
2023/08/28 04:00:50;;;;;;;1.52;1.25;;;13.60;99.90;;;;;;5019730;28;20060;-66
2023/08/28 04:03:16;;;;;;;2.28;1.33;;;13.60;99.90;;;;;;5018642;28;20026;-66
2023/08/28 04:05:42;;;;;;;1.95;1.00;;;13.60;99.90;;;;;;5019116;28;20017;-66
2023/08/28 04:08:08;;;;;;;2.78;1.15;;;13.70;99.90;;;;;;5018550;28;20022;-66
2023/08/28 04:10:34;;;;;;;2.00;1.30;;;13.70;99.90;;;;;;5018629;28;20018;-66
2023/08/28 04:12:59;;;;;;;3.67;1.45;;;13.70;99.90;;;;;;5019292;28;20065;-66
2023/08/28 04:15:25;;;;;;;2.08;1.15;;;13.70;99.90;;;;;;5019637;28;20018;-66
2023/08/28 04:17:50;;;;;;;4.28;1.60;;;13.70;99.90;;;;;;5018498;28;20049;-66
2023/08/28 04:20:16;;;;;;;2.30;1.48;;;13.70;99.90;;;;;;5018679;28;20044;-66
2023/08/28 04:22:43;;;;;;;3.92;1.42;;;13.70;99.90;;;;;;5019424;28;20075;-66
2023/08/28 04:25:09;;;;;;;3.58;1.42;;;13.70;99.90;;;;;;5019521;28;20072;-66
2023/08/28 04:27:35;;;;;;;4.30;1.55;;;13.70;99.90;;;;;;5019111;28;20029;-66
2023/08/28 04:30:02;;;;;;;3.92;1.30;;;13.70;99.90;;;;;;5018703;28;20053;-66
2023/08/28 04:32:27;;;;;;;2.95;1.58;;;13.70;99.90;;;;;;5019066;28;20049;-66
2023/08/28 04:34:53;;;;;;;3.03;1.35;;;13.70;99.90;;;;;;5018206;28;20025;-66
2023/08/28 04:37:18;;;;;;;4.05;1.85;;;13.50;99.90;;;;;;5019078;28;20129;-66
2023/08/28 04:39:44;;;;;;;9.40;1.83;;;13.50;99.90;;;;;;5018555;28;20029;-66
2023/08/28 04:42:10;;;;;;;2.85;1.90;;;13.40;99.90;;;;;;5018993;28;20033;-66
2023/08/28 04:44:35;;;;;;;2.75;1.70;;;13.30;99.90;;;;;;5018295;28;20030;-66
2023/08/28 04:47:02;;;;;;;2.42;1.58;;;13.10;99.90;;;;;;5018854;28;20101;-66
2023/08/28 04:49:27;;;;;;;5.13;2.10;;;13.10;99.90;;;;;;5018623;28;20033;-66
2023/08/28 04:51:53;;;;;;;3.15;1.80;;;13.10;99.90;;;;;;5018653;28;20030;-66
2023/08/28 04:54:18;;;;;;;7.72;2.00;;;13.20;99.90;;;;;;5018617;28;20029;-66
2023/08/28 04:56:44;;;;;;;5.32;1.77;;;13.20;99.90;;;;;;5017497;28;20029;-66
2023/08/28 04:59:09;;;;;;;5.68;1.70;;;13.20;99.90;;;;;;5017994;28;20060;-66
2023/08/28 05:01:35;;;;;;;3.58;1.95;;;13.10;99.90;;;;;;5018199;28;20029;-66
2023/08/28 05:04:00;;;;;;;2.95;1.77;;;13.20;99.90;;;;;;5018601;28;20030;-66
2023/08/28 05:06:26;;;;;;;10.68;1.85;;;13.40;99.90;;;;;;5018825;28;20069;-66
2023/08/28 05:08:51;;;;;;;2.92;1.90;;;13.50;99.90;;;;;;5017451;28;20129;-66
2023/08/28 05:11:17;;;;;;;4.95;1.75;;;13.50;99.90;;;;;;5017603;28;20025;-66
2023/08/28 05:13:42;;;;;;;3.03;1.98;;;13.60;99.90;;;;;;5017725;28;20025;-66
2023/08/28 05:16:08;;;;;;;6.45;1.98;;;13.60;99.90;;;;;;5018143;28;20101;-66
2023/08/28 05:18:33;;;;;;;5.43;1.88;;;13.60;99.90;;;;;;5018279;28;20040;-66
2023/08/28 05:20:59;;;;;;;6.25;1.60;;;13.60;99.90;;;;;;5017511;28;20033;-66
2023/08/28 05:23:25;;;;;;;7.15;1.50;;;13.70;99.90;;;;;;5017181;28;20030;-66
2023/08/28 05:25:52;;;;;;;3.90;1.90;;;13.70;99.90;;;;;;5018530;28;20030;-66
2023/08/28 05:28:17;;;;;;;3.92;1.90;;;13.80;99.90;;;;;;5018060;28;20092;-66
2023/08/28 05:30:43;;;;;;;6.55;2.00;;;13.80;99.90;;;;;;5017553;28;20049;-66
2023/08/28 05:33:08;;;;;;;5.25;2.30;;;13.80;99.90;;;;;;5018206;28;20026;-66
2023/08/28 05:35:34;;;;;;;4.20;2.10;;;13.90;99.90;;;;;;5018118;28;20110;-66
2023/08/28 05:37:59;;;;;;;4.75;2.10;;;14.00;99.90;;;;;;5017140;28;20100;-66
2023/08/28 05:40:25;;;;;;;3.97;1.73;;;14.30;99.90;;;;;;5017253;28;20093;-66
2023/08/28 05:42:50;;;;;;;4.90;2.00;;;14.40;99.90;;;;;;5017123;28;20026;-66
2023/08/28 05:45:16;;;;;;;3.30;2.00;;;14.50;99.90;;;;;;5017047;28;20113;-66
2023/08/28 05:47:42;;;;;;;4.80;2.00;;;14.50;99.90;;;;;;5017709;28;20024;-66
2023/08/28 05:50:08;;;;;;;4.20;2.05;;;14.50;99.90;;;;;;5016743;28;20026;-66
2023/08/28 05:52:34;;;;;;;2.33;1.73;;;14.50;99.90;;;;;;5017752;28;20029;-66
2023/08/28 05:54:59;;;;;;;6.03;2.33;;;14.50;99.90;;;;;;5017615;28;20025;-66
2023/08/28 05:57:25;;;;;;;6.22;2.00;;;14.40;99.90;;;;;;5016695;28;20109;-66
2023/08/28 05:59:51;;;;;;;3.40;2.10;;;14.50;99.90;;;;;;5016708;28;20026;-66
2023/08/28 06:02:17;;;;;;;4.00;2.33;;;14.50;99.90;;;;;;5017814;28;20084;-66
2023/08/28 06:04:51;;;;;;;5.13;2.70;;;14.50;99.90;;;;;;5017253;28;20026;-66
2023/08/28 06:07:16;;;;;;;5.18;2.45;;;14.40;99.90;;;;;;5016654;28;20026;-66
2023/08/28 06:09:43;;;;;;;8.32;2.72;;;14.40;99.90;;;;;;5016664;28;20069;-66
2023/08/28 06:12:08;;;;;;;7.15;2.28;;;14.30;99.90;;;;;;5017478;28;20018;-66
2023/08/28 06:14:34;;;;;;;5.95;3.70;;;14.20;99.90;;;;;;5016410;28;20051;-66
2023/08/28 06:17:00;;;;;;;4.85;2.30;;;14.10;99.90;;;;;;5016464;28;20048;-66
2023/08/28 06:19:25;;;;;;;10.00;2.55;;;14.10;99.90;;;;;;5017408;28;20057;-66
2023/08/28 06:21:51;;;;;;;5.60;3.13;;;14.10;99.90;;;;;;5017499;28;20030;-66
2023/08/28 06:24:16;;;;;;;6.72;3.25;;;14.00;99.90;;;;;;5017212;28;20030;-66
2023/08/28 06:26:42;;;;;;;10.07;2.72;;;14.00;99.90;;;;;;5017101;28;20045;-66
2023/08/28 06:29:07;;;;;;;6.40;3.33;;;14.00;99.90;;;;;;5017106;28;20026;-66
2023/08/28 06:31:33;;;;;;;4.53;3.30;;;13.90;99.90;;;;;;5017224;28;20025;-66
2023/08/28 06:33:59;;;;;;;4.20;3.17;;;13.70;99.90;;;;;;5016280;28;20029;-66
2023/08/28 06:36:24;;;;;;;10.25;3.65;;;13.60;99.90;;;;;;5016775;28;20029;-66
2023/08/28 06:38:52;;;;;;;12.25;4.32;;;13.80;99.90;;;;;;5017527;28;20018;-65
2023/08/28 06:41:18;;;;;;;4.55;3.30;;;13.90;99.90;;;;;;5016946;28;20022;-65
2023/08/28 06:43:43;;;;;;;5.72;2.90;;;14.00;99.90;;;;;;5016321;28;20021;-65
2023/08/28 06:46:09;;;;;;;6.05;3.08;;;13.90;99.90;;;;;;5016228;28;20029;-65
2023/08/28 06:48:34;;;;;;;5.28;3.45;;;14.00;99.90;;;;;;5016191;28;20037;-65
2023/08/28 06:51:00;;;;;;;3.45;2.95;;;14.10;99.90;;;;;;5016295;28;20030;-65
2023/08/28 06:53:25;;;;;;;5.60;2.78;;;14.20;99.90;;;;;;5017257;28;20026;-65
2023/08/28 06:55:51;;;;;;;7.47;3.42;;;14.40;99.90;;;;;;5017268;28;20104;-65
2023/08/28 06:58:16;;;;;;;5.63;2.63;;;14.40;99.90;;;;;;5016087;28;20028;-66
2023/08/28 07:00:42;;;;;;;4.50;3.45;;;14.40;99.90;;;;;;5016950;28;20022;-66
2023/08/28 07:03:08;;;;;;;7.97;3.80;;;14.50;99.90;;;;;;5017201;28;20030;-66
2023/08/28 07:05:33;;;;;;;7.55;3.72;;;14.50;99.90;;;;;;5016577;28;20018;-65
2023/08/28 07:07:59;;;;;;;5.03;3.00;;;14.30;99.90;;;;;;5016020;28;20025;-64
2023/08/28 07:10:24;;;;;;;4.47;3.08;;;14.30;99.90;;;;;;5016828;28;20018;-65
2023/08/28 07:12:50;;;;;;;4.47;2.75;;;14.30;99.90;;;;;;5016682;28;20022;-67
2023/08/28 07:15:18;;;;;;;4.70;2.72;;;14.30;99.90;;;;;;5016186;28;20026;-65
2023/08/28 07:17:44;;;;;;;4.90;3.15;;;14.30;99.90;;;;;;5016163;28;20125;-65
2023/08/28 07:20:09;;;;;;;5.18;3.10;;;14.40;99.90;;;;;;5018779;28;20022;-66
2023/08/28 07:22:35;;;;;;;7.45;3.83;;;14.50;99.90;;;;;;5019531;28;20041;-66
2023/08/28 07:25:01;;;;;;;5.03;2.88;;;14.50;99.90;;;;;;5019299;28;20033;-66
2023/08/28 07:27:27;;;;;;;7.80;3.10;;;14.50;99.90;;;;;;5019722;28;20022;-66
2023/08/28 07:29:52;;;;;;;4.03;3.05;;;14.60;99.90;;;;;;5019930;28;20056;-66
2023/08/28 07:32:18;;;;;;;4.07;2.75;;;14.60;99.90;;;;;;5019895;28;20101;-66
2023/08/28 07:34:44;;;;;;;6.47;2.95;;;14.70;99.90;;;;;;5019329;28;20022;-67
2023/08/28 07:37:09;;;;;;;7.20;3.60;;;14.70;99.90;;;;;;5019578;28;20072;-65
2023/08/28 07:39:35;;;;;;;3.50;2.75;;;14.70;99.90;;;;;;5019889;28;20028;-65
2023/08/28 07:42:00;;;;;;;5.32;2.70;;;14.80;99.90;;;;;;5020068;28;20030;-66
2023/08/28 07:44:26;;;;;;;7.50;2.85;;;14.90;99.90;;;;;;5019149;28;20076;-66
2023/08/28 07:46:52;;;;;;;6.30;2.80;;;14.90;99.90;;;;;;5019055;28;20037;-65
2023/08/28 07:49:17;;;;;;;3.30;2.60;;;15.10;99.90;;;;;;5018901;28;20080;-66
2023/08/28 07:51:43;;;;;;;4.68;3.03;;;15.20;99.90;;;;;;5019836;28;20022;-66
2023/08/28 07:54:10;;;;;;;5.90;3.40;;;15.40;99.90;;;;;;5019009;28;20121;-65
2023/08/28 07:56:36;;;;;;;6.10;2.70;;;15.40;99.90;;;;;;5019874;28;20101;-65
2023/08/28 07:59:01;;;;;;;6.35;3.53;;;15.50;99.90;;;;;;5019491;28;20022;-63
2023/08/28 08:01:27;;;;;;;4.38;2.78;;;15.70;99.90;;;;;;5019941;28;20057;-64
2023/08/28 08:03:52;;;;;;;6.60;3.00;;;15.60;99.90;;;;;;5018656;28;20041;-64
2023/08/28 08:06:18;;;;;;;10.82;3.88;;;15.50;99.90;;;;;;5018814;28;20018;-64
2023/08/28 08:08:48;;;;;;;4.63;2.92;;;15.50;99.90;;;;;;5018214;28;20014;-64
2023/08/28 08:11:14;;;;;;;7.03;3.40;;;15.70;99.90;;;;;;5019061;28;20100;-64
2023/08/28 08:13:39;;;;;;;7.18;3.30;;;15.70;99.90;;;;;;5018055;28;20057;-64
2023/08/28 08:16:05;;;;;;;6.47;4.03;;;15.70;99.90;;;;;;5018421;28;20036;-64
2023/08/28 08:18:31;;;;;;;7.03;3.70;;;15.80;99.90;;;;;;5018300;28;20022;-65
2023/08/28 08:20:57;;;;;;;8.27;4.60;;;15.80;99.90;;;;;;5019124;28;20061;-65
2023/08/28 08:23:23;;;;;;;11.15;4.57;;;15.70;99.90;;;;;;5019155;28;20022;-65
2023/08/28 08:25:49;;;;;;;7.53;4.18;;;15.70;99.90;;;;;;5018473;28;20061;-65
2023/08/28 08:28:15;;;;;;;6.20;3.72;;;15.70;99.90;;;;;;5018529;28;20018;-65
2023/08/28 08:30:41;;;;;;;7.18;4.20;;;15.80;99.90;;;;;;5017719;28;20052;-65
2023/08/28 08:33:07;;;;;;;6.22;4.00;;;15.80;99.90;;;;;;5018231;28;20022;-65
2023/08/28 08:35:34;;;;;;;4.38;3.25;;;15.90;99.90;;;;;;5018547;28;20029;-65
2023/08/28 08:38:00;;;;;;;12.77;3.30;;;16.10;99.90;;;;;;5019441;28;20018;-66
2023/08/28 08:40:26;;;;;;;10.63;3.55;;;16.30;99.90;;;;;;5017996;28;20029;-66
2023/08/28 08:42:53;;;;;;;8.85;3.33;;;16.40;99.90;;;;;;5017976;28;20072;-66
2023/08/28 08:45:25;;;;;;;7.65;3.85;;;16.20;99.90;;;;;;5018948;28;20053;-65
2023/08/28 08:47:54;;;;;;;5.53;3.50;;;16.10;99.90;;;;;;5019109;28;20030;-65
2023/08/28 08:50:21;;;;;;;7.28;3.42;;;16.00;99.90;;;;;;5030635;23;20030;-66
2023/08/28 08:52:47;;;;;;;5.38;3.30;;;16.00;99.90;;;;;;4998393;28;20022;-66
2023/08/28 08:55:53;;;;;;;5.63;3.15;;;15.90;99.90;;;;;;4998655;28;20117;-66
2023/08/28 08:58:19;;;;;;;4.30;2.80;;;16.10;99.90;;;;;;4998383;28;20026;-66
2023/08/28 09:00:45;;;;;;;4.75;3.30;;;16.20;99.90;;;;;;5006438;28;20076;-66
2023/08/28 09:03:13;;;;;;;7.78;3.25;;;16.10;99.90;;;;;;5007320;28;20026;-66
2023/08/28 09:05:39;;;;;;;4.85;3.05;;;16.40;99.90;;;;;;5007581;28;20022;-66
2023/08/28 09:08:06;;;;;;;7.15;3.45;;;16.60;99.90;;;;;;5008813;28;20041;-66
2023/08/28 09:10:32;;;;;;;5.47;3.55;;;16.70;99.90;;;;;;5006610;28;20022;-66
2023/08/28 09:12:58;;;;;;;5.88;3.15;;;16.70;99.90;;;;;;5007471;28;20105;-66
2023/08/28 09:15:24;;;;;;;7.20;3.40;;;16.60;99.90;;;;;;5006890;28;20133;-66
2023/08/28 09:17:51;;;;;;;5.57;3.70;;;16.50;99.90;;;;;;5009081;28;20018;-66
2023/08/28 09:20:18;;;;;;;10.88;4.00;;;16.60;99.90;;;;;;5009139;28;20095;-67
2023/08/28 09:22:51;;;;;;;5.38;3.30;;;16.60;99.90;;;;;;5006116;28;20033;-66
2023/08/28 09:25:18;;;;;;;6.95;3.65;;;16.60;99.90;;;;;;5007436;28;20045;-66
2023/08/28 09:27:45;;;;;;;6.90;3.78;;;16.70;99.90;;;;;;5007992;28;20049;-66
2023/08/28 09:30:26;;;;;;;7.32;4.28;;;16.70;99.90;;;;;;5005997;28;20018;-66
2023/08/28 09:32:51;;;;;;;5.88;3.80;;;16.60;99.90;;;;;;5006230;28;20087;-66
2023/08/28 09:35:20;;;;;;;5.45;3.20;;;16.60;99.90;;;;;;5007111;28;20023;-66
2023/08/28 09:37:55;;;;;;;5.15;3.70;;;16.80;99.90;;;;;;5005483;28;20030;-66
2023/08/28 09:40:30;;;;;;;6.43;4.28;;;16.80;99.90;;;;;;5013161;28;20021;-66
2023/08/28 09:42:56;;;;;;;6.68;3.60;;;16.90;99.90;;;;;;5006142;28;20018;-66
2023/08/28 09:45:21;;;;;;;7.63;4.05;;;17.00;99.90;;;;;;4997268;28;20117;-67
2023/08/28 09:47:54;;;;;;;4.78;3.30;;;17.00;99.90;;;;;;4997354;28;20046;-67
2023/08/28 09:50:24;;;;;;;5.65;3.30;;;17.10;99.90;;;;;;4997153;28;20030;-67
2023/08/28 09:52:50;;;;;;;5.60;3.30;;;17.10;99.90;;;;;;5002635;28;20041;-67
2023/08/28 09:55:15;;;;;;;4.38;3.53;;;17.00;99.90;;;;;;5004146;28;20026;-67
2023/08/28 09:57:44;;;;;;;9.20;3.60;;;16.90;99.90;;;;;;5006251;28;20026;-67
2023/08/28 10:00:13;;;;;;;4.78;3.42;;;16.90;99.90;;;;;;5005248;28;20030;-67
2023/08/28 10:02:39;;;;;;;5.78;3.35;;;16.80;99.90;;;;;;5003785;28;20022;-67
2023/08/28 10:05:09;;;;;;;8.45;3.30;;;16.90;99.90;;;;;;5005432;28;20022;-67
2023/08/28 10:07:37;;;;;;;3.78;2.90;;;17.20;99.90;;;;;;5005613;28;20094;-67
2023/08/28 10:10:04;;;;;;;4.40;2.80;;;17.20;99.90;;;;;;5004073;28;20053;-67
2023/08/28 10:12:30;;;;;;;3.90;2.85;;;17.30;99.90;;;;;;5004937;28;20026;-67
2023/08/28 10:14:58;;;;;;;4.53;2.97;;;17.20;99.90;;;;;;5005499;28;20033;-67
2023/08/28 10:17:27;;;;;;;5.35;3.20;;;17.30;99.90;;;;;;5003880;28;20117;-67
2023/08/28 10:20:03;;;;;;;5.43;2.92;;;17.10;99.90;;;;;;5004550;28;20055;-67
2023/08/28 10:22:33;;;;;;;6.78;3.22;;;17.30;99.90;;;;;;5004495;28;20091;-67
2023/08/28 10:24:59;;;;;;;3.55;2.42;;;17.40;99.90;;;;;;5003825;28;20129;-67
2023/08/28 10:27:25;;;;;;;8.15;4.22;;;17.60;99.90;;;;;;5006208;28;20018;-67
2023/08/28 10:29:53;;;;;;;3.17;2.85;;;17.50;99.90;;;;;;5004764;28;20105;-67
2023/08/28 10:32:20;;;;;;;5.78;3.25;;;17.40;99.90;;;;;;5004507;28;20018;-67
2023/08/28 10:34:46;;;;;;;6.72;2.75;;;17.30;99.90;;;;;;5005363;28;20034;-68
2023/08/28 10:37:13;;;;;;;4.20;2.75;;;17.70;99.90;;;;;;5005888;28;20026;-67
2023/08/28 10:39:41;;;;;;;3.60;2.45;;;18.10;99.90;;;;;;5005648;28;20026;-68
2023/08/28 10:42:10;;;;;;;3.13;2.53;;;18.10;99.90;;;;;;5003169;28;20026;-68
2023/08/28 10:44:37;;;;;;;4.20;2.72;;;17.90;99.90;;;;;;5006095;28;20081;-68
2023/08/28 10:47:03;;;;;;;3.58;2.20;;;18.00;99.90;;;;;;5006430;28;20109;-67
2023/08/28 10:49:29;;;;;;;6.10;2.80;;;18.00;99.90;;;;;;5009027;28;20114;-68
2023/08/28 10:52:04;;;;;;;7.22;2.70;;;18.30;99.90;;;;;;5002156;28;20026;-67
2023/08/28 10:55:03;;;;;;;5.22;2.00;;;18.60;99.90;;;;;;5003179;28;20022;-67
2023/08/28 10:57:29;;;;;;;2.42;2.10;;;18.90;99.90;;;;;;4952617;29;20050;-67
2023/08/28 10:59:58;;;;;;;3.45;2.47;;;19.20;99.90;;;;;;4934051;29;20053;-67
2023/08/28 11:02:24;;;;;;;3.15;2.17;;;19.40;99.90;;;;;;4949184;29;20032;-67
2023/08/28 11:04:50;;;;;;;3.30;2.08;;;19.40;99.90;;;;;;4935203;29;20023;-68
2023/08/28 11:07:21;;;;;;;4.88;2.50;;;19.50;99.90;;;;;;4952272;29;20035;-68
2023/08/28 11:09:47;;;;;;;3.03;2.30;;;19.50;99.90;;;;;;4952072;29;20064;-67
2023/08/28 11:12:16;;;;;;;2.88;2.08;;;19.50;99.90;;;;;;4950592;28;20023;-65
2023/08/28 11:14:55;;;;;;;3.97;2.10;;;19.40;99.90;;;;;;4951610;29;20063;-65
2023/08/28 11:17:22;;;;;;;3.15;1.80;;;19.40;99.90;;;;;;4937333;29;20078;-65
2023/08/28 11:19:54;;;;;;;2.45;2.15;;;19.50;99.90;;;;;;4934982;29;20031;-66
2023/08/28 11:22:36;;;;;;;5.75;2.35;;;19.90;99.90;;;;;;4953496;29;20063;-65
2023/08/28 11:25:07;;;;;;;2.33;1.70;;;20.00;99.90;;;;;;4946361;29;20039;-66
2023/08/28 11:27:43;;;;;;;4.32;2.03;;;20.10;99.90;;;;;;4960018;29;20031;-65
2023/08/28 11:30:10;;;;;;;3.58;2.00;;;20.20;99.90;;;;;;4958687;29;20046;-65
2023/08/28 11:32:37;;;;;;;5.93;2.55;;;20.20;99.90;;;;;;4943290;28;20035;-66
2023/08/28 11:35:05;;;;;;;5.88;1.88;;;20.10;99.90;;;;;;5018126;28;20025;-66
2023/08/28 11:37:32;;;;;;;2.72;2.00;;;19.90;99.90;;;;;;5018153;28;20025;-67
2023/08/28 11:39:59;;;;;;;4.53;2.70;;;20.00;99.90;;;;;;5017675;28;20032;-67
2023/08/28 11:42:26;;;;;;;5.43;2.28;;;20.20;99.90;;;;;;5018006;28;20030;-66
2023/08/28 11:44:52;;;;;;;3.47;2.25;;;20.20;99.90;;;;;;5017500;28;20043;-66
2023/08/28 11:47:29;;;;;;;9.13;2.30;;;20.30;99.90;;;;;;5017992;28;20018;-66
2023/08/28 11:49:55;;;;;;;3.80;1.95;;;20.30;99.90;;;;;;5017610;28;20114;-66
2023/08/28 11:52:22;;;;;;;2.25;1.80;;;20.20;99.90;;;;;;5018537;28;20030;-66
2023/08/28 11:54:48;;;;;;;3.22;2.05;;;20.30;99.90;;;;;;5017731;28;20072;-67
2023/08/28 11:57:16;;;;;;;4.03;1.88;;;20.00;99.90;;;;;;5017619;28;20026;-66
2023/08/28 11:59:42;;;;;;;1.80;1.45;;;20.10;99.90;;;;;;5017351;28;20030;-66
2023/08/28 12:02:09;;;;;;;3.20;1.92;;;20.10;99.90;;;;;;5017351;28;20033;-66
2023/08/28 12:04:38;;;;;;;2.40;1.40;;;20.20;99.90;;;;;;5017111;28;20026;-66
2023/08/28 12:07:06;;;;;;;2.65;1.55;;;20.60;99.90;;;;;;5016270;28;20065;-66
2023/08/28 12:09:32;;;;;;;3.47;1.40;;;21.10;99.90;;;;;;5018222;28;20136;-67
2023/08/28 12:11:58;;;;;;;2.78;1.40;;;21.50;99.90;;;;;;5018350;28;20105;-66
2023/08/28 12:14:25;;;;;;;2.75;1.38;;;21.30;99.90;;;;;;5018337;28;20041;-67
2023/08/28 12:16:59;;;;;;;2.53;1.63;;;21.60;99.90;;;;;;5018627;28;20022;-66
2023/08/28 12:19:24;;;;;;;2.72;1.58;;;21.60;99.90;;;;;;5019391;28;20115;-67
2023/08/28 12:21:50;;;;;;;2.13;1.70;;;21.50;99.90;;;;;;5018498;28;20065;-67
2023/08/28 12:24:16;;;;;;;3.45;1.90;;;21.60;99.90;;;;;;5018677;28;20030;-67
2023/08/28 12:26:45;;;;;;;2.30;1.80;;;21.70;99.90;;;;;;5018342;28;20026;-67
2023/08/28 12:29:10;;;;;;;8.60;2.08;;;21.70;99.90;;;;;;5019214;28;20018;-68
2023/08/28 12:31:36;;;;;;;5.78;1.92;;;21.70;99.90;;;;;;5019007;28;20025;-68
2023/08/28 12:34:11;;;;;;;3.53;1.35;;;21.80;99.90;;;;;;5018329;28;20037;-67
2023/08/28 12:36:37;;;;;;;2.00;1.40;;;21.80;99.90;;;;;;5018293;28;20026;-66
2023/08/28 12:39:04;;;;;;;2.50;1.35;;;21.60;99.90;;;;;;5016619;28;20022;-67
2023/08/28 12:41:47;;;;;;;1.67;1.30;;;21.30;99.90;;;;;;5017653;28;20033;-67
2023/08/28 12:44:13;;;;;;;3.47;1.27;;;21.20;99.90;;;;;;5018064;28;20049;-68